Time;durP1;ratioP1;P1;durP2;ratioP2;P2;SDS_P1;SDS_P2;PMS_P1;PMS_P2;Temp;Humidity;BMP_temperature;BMP_pressure;BME280_temperature;BME280_humidity;BME280_pressure;Samples;Min_cycle;Max_cycle;Signal;HPM_P1;HPM_P2
2021/11/24 00:00:07;;;;;;;8.80;5.47;;;;;;;;;;5041654;28;20451;-92
2021/11/24 00:02:34;;;;;;;11.90;5.30;;;;;;;;;;5041764;28;20937;-91
2021/11/24 00:05:01;;;;;;;13.70;5.70;;;;;;;;;;5042253;28;20449;-91
2021/11/24 00:07:28;;;;;;;10.07;5.00;;;;;;;;;;5043175;28;20450;-92
2021/11/24 00:09:55;;;;;;;16.13;6.17;;;;;;;;;;5042518;28;20914;-89
2021/11/24 00:12:23;;;;;;;12.83;5.70;;;;;;;;;;5042453;28;20466;-92
2021/11/24 00:14:51;;;;;;;10.37;5.43;;;;;;;;;;5042410;28;20458;-89
2021/11/24 00:17:18;;;;;;;9.37;5.23;;;;;;;;;;5042794;28;20454;-90
2021/11/24 00:19:46;;;;;;;13.43;5.63;;;-2.40;99.90;;;;;;5048355;28;20824;-89
2021/11/24 00:22:14;;;;;;;10.63;5.63;;;;;;;;;;5047857;28;20494;-89
2021/11/24 00:24:41;;;;;;;9.30;5.40;;;;;;;;;;5048359;28;20449;-92
2021/11/24 00:27:08;;;;;;;8.57;5.43;;;;;;;;;;5042688;28;20444;-89
2021/11/24 00:29:35;;;;;;;13.30;5.03;;;;;;;;;;5041950;28;20485;-90
2021/11/24 00:32:04;;;;;;;9.43;5.03;;;-2.40;99.90;;;;;;5041357;28;20485;-90
2021/11/24 00:34:31;;;;;;;15.87;5.10;;;;;;;;;;5042721;28;20450;-90
2021/11/24 00:36:58;;;;;;;8.83;4.10;;;;;;;;;;5042446;28;20446;-90
2021/11/24 00:39:26;;;;;;;11.70;5.33;;;;;;;;;;5039626;28;20970;-90
2021/11/24 00:41:53;;;;;;;8.77;4.33;;;;;;;;;;5038735;28;20914;-92
2021/11/24 00:44:20;;;;;;;5.93;4.53;;;;;;;;;;5038500;28;20449;-92
2021/11/24 00:46:47;;;;;;;5.80;4.20;;;;;;;;;;5037703;28;20461;-90
2021/11/24 00:49:15;;;;;;;6.90;4.30;;;-1.70;99.90;;;;;;5037441;28;20945;-91
2021/11/24 00:51:43;;;;;;;8.70;5.40;;;;;;;;;;5033999;28;20474;-90
2021/11/24 00:54:10;;;;;;;12.20;4.13;;;;;;;;;;5037075;28;20452;-91
2021/11/24 00:56:37;;;;;;;10.43;5.53;;;;;;;;;;5037468;28;20467;-89
2021/11/24 00:59:04;;;;;;;7.77;4.30;;;;;;;;;;5037097;28;20432;-89
2021/11/24 01:01:32;;;;;;;7.20;5.00;;;;;;;;;;5036530;28;20465;-90
2021/11/24 01:03:59;;;;;;;7.43;4.80;;;;;;;;;;5037168;28;20444;-90
2021/11/24 01:06:27;;;;;;;12.73;5.23;;;-2.00;99.90;;;;;;5036485;28;20442;-89
2021/11/24 01:08:54;;;;;;;7.00;4.70;;;;;;;;;;5036949;28;20438;-89
2021/11/24 01:11:21;;;;;;;11.30;4.93;;;;;;;;;;5035945;28;20998;-94
2021/11/24 01:13:49;;;;;;;6.30;4.83;;;;;;;;;;5036682;28;20480;-90
2021/11/24 01:16:16;;;;;;;7.60;4.70;;;;;;;;;;5035731;28;20452;-94
2021/11/24 01:18:43;;;;;;;9.90;5.07;;;;;;;;;;5037197;28;20482;-91
2021/11/24 01:21:10;;;;;;;4.30;3.60;;;;;;;;;;5049832;28;20478;-92
2021/11/24 01:23:39;;;;;;;8.00;4.40;;;-2.80;99.90;;;;;;5059148;28;20446;-90
2021/11/24 01:26:06;;;;;;;7.13;4.70;;;;;;;;;;5038073;28;20439;-91
2021/11/24 01:28:33;;;;;;;8.60;4.47;;;;;;;;;;5038590;28;20942;-90
2021/11/24 01:31:00;;;;;;;5.17;3.57;;;;;;;;;;5037107;28;20485;-92
2021/11/24 01:33:27;;;;;;;10.07;4.97;;;;;;;;;;5037448;28;20450;-90
2021/11/24 01:35:55;;;;;;;6.03;4.20;;;;;;;;;;5037200;28;20446;-89
2021/11/24 01:38:22;;;;;;;7.00;4.30;;;;;;;;;;5037349;28;20454;-90
2021/11/24 01:40:50;;;;;;;5.33;4.07;;;-2.90;99.90;;;;;;5037019;28;20455;-90
2021/11/24 01:43:18;;;;;;;6.57;4.33;;;;;;;;;;5037414;28;20450;-93
2021/11/24 01:45:45;;;;;;;5.73;3.70;;;;;;;;;;5036316;28;20454;-92
2021/11/24 01:48:12;;;;;;;7.93;4.40;;;;;;;;;;5035540;28;20441;-90
2021/11/24 01:50:39;;;;;;;6.80;4.40;;;;;;;;;;5036142;28;20470;-90
2021/11/24 01:53:07;;;;;;;6.27;4.23;;;;;;;;;;5035634;28;20471;-90
2021/11/24 01:55:34;;;;;;;6.83;4.33;;;;;;;;;;5035764;28;20466;-89
2021/11/24 01:58:04;;;;;;;4.83;3.57;;;-3.00;99.90;;;;;;5035999;28;20496;-89
2021/11/24 02:00:33;;;;;;;5.43;4.10;;;-3.00;99.90;;;;;;5035696;28;20449;-90
2021/11/24 02:03:02;;;;;;;7.03;4.20;;;;;;;;;;5035219;28;20454;-90
2021/11/24 02:05:29;;;;;;;7.30;3.73;;;;;;;;;;5036097;28;20473;-90
2021/11/24 02:07:56;;;;;;;5.37;4.10;;;;;;;;;;5037025;28;20450;-89
2021/11/24 02:10:24;;;;;;;7.00;4.57;;;-3.00;99.90;;;;;;5036564;28;20459;-89
2021/11/24 02:12:52;;;;;;;5.23;4.23;;;-3.00;99.90;;;;;;5036243;28;20504;-90
2021/11/24 02:15:21;;;;;;;6.03;4.17;;;-3.10;99.90;;;;;;5036651;28;20446;-92
2021/11/24 02:17:48;;;;;;;5.03;4.10;;;;;;;;;;5035459;28;20504;-90
2021/11/24 02:20:18;;;;;;;6.40;4.03;;;-3.10;99.90;;;;;;5035858;28;20455;-92
2021/11/24 02:22:45;;;;;;;10.50;4.80;;;;;;;;;;5034156;28;20450;-88
2021/11/24 02:25:12;;;;;;;6.47;4.50;;;;;;;;;;5035452;28;20460;-90
2021/11/24 02:27:39;;;;;;;6.30;4.50;;;;;;;;;;5036244;28;20470;-88
2021/11/24 02:30:07;;;;;;;7.97;4.90;;;-3.10;99.90;;;;;;5035597;28;20450;-89
2021/11/24 02:32:34;;;;;;;6.47;4.90;;;;;;;;;;5035029;28;20501;-91
2021/11/24 02:35:01;;;;;;;6.23;3.73;;;;;;;;;;5036147;28;20822;-91
2021/11/24 02:37:29;;;;;;;6.93;5.13;;;-3.10;99.90;;;;;;5035111;28;20450;-92
2021/11/24 02:39:57;;;;;;;7.33;4.80;;;;;;;;;;5035549;28;20457;-93
2021/11/24 02:42:26;;;;;;;6.20;5.00;;;;;;;;;;5035188;28;20447;-90
2021/11/24 02:44:55;;;;;;;6.03;4.83;;;;;;;;;;5035421;28;20511;-91
2021/11/24 02:47:22;;;;;;;9.83;5.90;;;;;;;;;;5035159;28;20494;-90
2021/11/24 02:49:51;;;;;;;14.60;4.60;;;-3.10;99.90;;;;;;5037649;28;21022;-89
2021/11/24 02:52:19;;;;;;;6.30;4.70;;;-3.10;99.90;;;;;;5037053;28;20517;-89
2021/11/24 02:54:52;;;;;;;11.23;5.07;;;-3.10;99.90;;;;;;5036144;28;20462;-92
2021/11/24 02:57:19;;;;;;;11.70;5.43;;;;;;;;;;5036090;28;20447;-91
2021/11/24 02:59:46;;;;;;;7.83;5.63;;;;;;;;;;5036423;28;20459;-92
2021/11/24 03:02:14;;;;;;;6.57;4.77;;;;;;;;;;5035459;28;20454;-94
2021/11/24 03:04:41;;;;;;;8.63;5.73;;;-3.20;99.90;;;;;;5036989;28;20454;-92
2021/11/24 03:07:08;;;;;;;9.67;5.60;;;;;;;;;;5032924;28;20468;-92
2021/11/24 03:09:36;;;;;;;9.63;5.63;;;;;;;;;;5036669;28;20486;-90
2021/11/24 03:12:05;;;;;;;6.53;4.10;;;-3.20;99.90;;;;;;5035481;28;20502;-91
2021/11/24 03:14:32;;;;;;;6.60;5.30;;;;;;;;;;5031249;28;20856;-89
2021/11/24 03:16:59;;;;;;;8.63;4.80;;;;;;;;;;5035041;28;20462;-91
2021/11/24 03:19:26;;;;;;;8.30;4.40;;;;;;;;;;5035490;28;20461;-89
2021/11/24 03:21:53;;;;;;;6.37;4.73;;;;;;;;;;5034955;28;20470;-90
2021/11/24 03:24:21;;;;;;;9.07;5.40;;;;;;;;;;5035190;28;20439;-91
2021/11/24 03:26:48;;;;;;;6.13;4.83;;;;;;;;;;5035846;28;20459;-92
2021/11/24 03:29:16;;;;;;;7.33;4.67;;;-3.20;99.90;;;;;;5034998;28;20439;-93
2021/11/24 03:31:43;;;;;;;8.10;4.53;;;;;;;;;;5034412;28;20497;-93
2021/11/24 03:34:10;;;;;;;7.70;5.03;;;;;;;;;;5036634;28;20446;-93
2021/11/24 03:36:38;;;;;;;9.73;5.67;;;;;;;;;;5038592;28;20500;-90
2021/11/24 03:39:05;;;;;;;7.37;5.07;;;;;;;;;;5038646;28;20453;-90
2021/11/24 03:41:32;;;;;;;6.17;4.87;;;;;;;;;;5038472;28;20828;-91
2021/11/24 03:44:00;;;;;;;7.67;5.63;;;;;;;;;;5036154;28;20453;-91
2021/11/24 03:46:31;;;;;;;5.93;4.70;;;-3.30;99.90;;;;;;5038866;28;20512;-87
2021/11/24 03:48:59;;;;;;;5.53;4.20;;;;;;;;;;5038000;28;20453;-92
2021/11/24 03:51:26;;;;;;;9.23;5.13;;;;;;;;;;5038008;28;20482;-88
2021/11/24 03:53:53;;;;;;;9.33;4.60;;;;;;;;;;5038115;28;20434;-89
2021/11/24 03:56:20;;;;;;;7.87;5.87;;;;;;;;;;5051190;28;20433;-91
2021/11/24 03:58:47;;;;;;;9.10;5.57;;;;;;;;;;5060194;28;20446;-91
2021/11/24 04:01:14;;;;;;;10.07;5.57;;;;;;;;;;5038049;28;20906;-91
2021/11/24 04:03:42;;;;;;;7.93;5.30;;;-3.40;99.90;;;;;;5037951;28;20510;-89
2021/11/24 04:06:10;;;;;;;6.13;4.73;;;;;;;;;;5038135;28;20456;-90
2021/11/24 04:08:37;;;;;;;10.10;5.30;;;;;;;;;;5038057;28;20948;-92
2021/11/24 04:11:04;;;;;;;9.47;5.30;;;;;;;;;;5038358;28;20470;-92
2021/11/24 04:13:31;;;;;;;9.43;5.57;;;;;;;;;;5037687;28;20474;-89
2021/11/24 04:15:58;;;;;;;9.10;6.13;;;;;;;;;;5037808;28;20549;-91
2021/11/24 04:18:25;;;;;;;9.27;6.30;;;;;;;;;;5035631;28;20801;-91
2021/11/24 04:20:56;;;;;;;9.47;6.07;;;-3.20;99.90;;;;;;5037650;28;20485;-91
2021/11/24 04:23:23;;;;;;;8.53;5.23;;;;;;;;;;5038387;28;20892;-91
2021/11/24 04:25:50;;;;;;;8.50;5.27;;;;;;;;;;5038467;28;20461;-90
2021/11/24 04:28:17;;;;;;;7.27;5.30;;;;;;;;;;5037585;28;20465;-90
2021/11/24 04:30:44;;;;;;;8.13;5.00;;;;;;;;;;5037021;28;20457;-89
2021/11/24 04:33:12;;;;;;;9.00;5.50;;;;;;;;;;5036310;28;20500;-90
2021/11/24 04:35:39;;;;;;;9.43;6.00;;;;;;;;;;5037124;28;20460;-91
2021/11/24 04:38:08;;;;;;;7.90;5.63;;;-3.30;99.90;;;;;;5035995;28;20973;-92
2021/11/24 04:40:35;;;;;;;12.87;6.17;;;-3.40;99.90;;;;;;5036844;28;20957;-89
2021/11/24 04:43:05;;;;;;;11.70;5.80;;;;;;;;;;5035807;28;20541;-88
2021/11/24 04:45:32;;;;;;;10.27;5.70;;;;;;;;;;5035787;28;20458;-91
2021/11/24 04:48:00;;;;;;;7.77;5.17;;;;;;;;;;5036326;28;20467;-90
2021/11/24 04:50:27;;;;;;;7.53;5.57;;;;;;;;;;5037038;28;20454;-91
2021/11/24 04:52:54;;;;;;;9.50;5.80;;;;;;;;;;5036347;28;20489;-91
2021/11/24 04:55:22;;;;;;;6.00;5.10;;;-3.30;99.90;;;;;;5036414;28;20453;-92
2021/11/24 04:57:50;;;;;;;7.50;5.93;;;;;;;;;;5032617;28;20446;-91
2021/11/24 05:00:21;;;;;;;8.07;6.00;;;-3.50;99.90;;;;;;5036619;28;20790;-92
2021/11/24 05:02:50;;;;;;;7.27;5.50;;;;;;;;;;5036516;28;20466;-90
2021/11/24 05:05:18;;;;;;;9.83;5.70;;;;;;;;;;5034195;28;20461;-90
2021/11/24 05:07:46;;;;;;;11.87;6.63;;;;;;;;;;5036713;28;20464;-91
2021/11/24 05:10:13;;;;;;;9.50;5.90;;;;;;;;;;5036311;28;20468;-90
2021/11/24 05:12:41;;;;;;;13.63;5.67;;;-3.50;99.90;;;;;;5036897;28;20475;-90
2021/11/24 05:15:12;;;;;;;8.37;5.30;;;-3.50;99.90;;;;;;5036893;28;20951;-90
2021/11/24 05:17:41;;;;;;;12.20;6.67;;;;;;;;;;5035785;28;20450;-91
2021/11/24 05:20:09;;;;;;;10.53;7.33;;;-3.50;99.90;;;;;;5033781;28;20477;-92
2021/11/24 05:22:36;;;;;;;10.40;6.03;;;;;;;;;;5036297;28;20442;-93
2021/11/24 05:25:03;;;;;;;14.57;6.70;;;;;;;;;;5036499;28;20457;-92
2021/11/24 05:27:31;;;;;;;9.17;5.90;;;;;;;;;;5036459;28;20446;-92
2021/11/24 05:29:59;;;;;;;10.47;6.30;;;-3.50;99.90;;;;;;5035930;28;20486;-90
2021/11/24 05:32:26;;;;;;;10.27;6.30;;;;;;;;;;5035604;28;20492;-93
2021/11/24 05:34:53;;;;;;;9.30;6.77;;;;;;;;;;5035908;28;20472;-91
2021/11/24 05:37:20;;;;;;;11.83;6.23;;;;;;;;;;5036050;28;20450;-91
2021/11/24 05:39:47;;;;;;;8.97;6.23;;;;;;;;;;5036158;28;20450;-88
2021/11/24 05:42:14;;;;;;;10.27;6.57;;;;;;;;;;5032126;28;20458;-91
2021/11/24 05:44:47;;;;;;;11.27;6.37;;;;;;;;;;5033629;28;20508;-91
2021/11/24 05:47:50;;;;;;;8.77;5.93;;;-3.50;99.90;;;;;;5035127;28;20461;-90
2021/11/24 05:50:10;;;;;;;13.67;8.97;;;-3.50;99.90;;;;;;5036495;28;20541;-92
2021/11/24 05:52:37;;;;;;;16.70;9.97;;;;;;;;;;5036202;28;20490;-92
2021/11/24 05:55:05;;;;;;;17.53;7.40;;;-1.40;99.90;;;;;;5035546;28;20449;-92
2021/11/24 05:57:32;;;;;;;13.87;8.30;;;;;;;;;;5034333;28;20439;-90
2021/11/24 05:59:59;;;;;;;13.17;8.07;;;;;;;;;;5036267;28;20805;-91
2021/11/24 06:02:28;;;;;;;13.40;8.00;;;;;;;;;;5035864;28;20462;-90
2021/11/24 06:04:55;;;;;;;10.60;7.07;;;;;;;;;;5035948;28;20899;-92
2021/11/24 06:07:22;;;;;;;13.80;6.80;;;;;;;;;;5038341;28;20458;-89
2021/11/24 06:09:50;;;;;;;16.77;10.20;;;;;;;;;;5039020;28;20458;-89
2021/11/24 06:12:17;;;;;;;14.80;9.73;;;;;;;;;;5043892;28;20489;-89
2021/11/24 06:14:44;;;;;;;19.53;9.10;;;;;;;;;;5040679;28;20446;-89
2021/11/24 06:17:12;;;;;;;15.23;8.10;;;-3.60;99.90;;;;;;5040653;28;20454;-89
2021/11/24 06:19:40;;;;;;;13.07;8.20;;;-3.70;99.90;;;;;;5045500;28;20451;-90
2021/11/24 06:22:07;;;;;;;13.00;7.00;;;;;;;;;;5041757;28;20473;-92
2021/11/24 06:24:35;;;;;;;14.73;7.13;;;;;;;;;;5039647;28;20446;-91
2021/11/24 06:27:02;;;;;;;12.07;7.97;;;-3.70;99.90;;;;;;5040867;28;20459;-90
2021/11/24 06:29:29;;;;;;;10.50;6.37;;;;;;;;;;5044810;28;20454;-89
2021/11/24 06:31:57;;;;;;;11.53;6.70;;;;;;;;;;5057525;28;20459;-91
2021/11/24 06:34:24;;;;;;;10.07;6.90;;;;;;;;;;5049303;28;20450;-92
2021/11/24 06:36:53;;;;;;;11.87;7.53;;;-3.60;99.90;;;;;;5039419;28;20458;-88
2021/11/24 06:39:20;;;;;;;14.17;9.13;;;;;;;;;;5037620;28;20454;-90
2021/11/24 06:41:48;;;;;;;9.53;7.40;;;;;;;;;;5035478;28;20450;-92
2021/11/24 06:44:15;;;;;;;15.93;8.90;;;;;;;;;;5036556;28;20512;-92
2021/11/24 06:46:42;;;;;;;13.50;6.97;;;-3.70;99.90;;;;;;5034784;28;20455;-91
2021/11/24 06:49:09;;;;;;;25.40;16.70;;;;;;;;;;5034022;28;20478;-91
2021/11/24 06:51:37;;;;;;;23.60;16.97;;;;;;;;;;5034997;28;20441;-91
2021/11/24 06:54:05;;;;;;;34.93;24.30;;;-3.60;99.90;;;;;;5035359;28;20497;-90
2021/11/24 06:56:32;;;;;;;20.37;14.43;;;;;;;;;;5031451;28;20453;-92
2021/11/24 06:58:59;;;;;;;18.00;11.00;;;;;;;;;;5034359;28;20461;-91
2021/11/24 07:01:26;;;;;;;15.80;9.47;;;;;;;;;;5033860;28;20436;-91
2021/11/24 07:03:53;;;;;;;11.13;7.70;;;;;;;;;;5035115;28;20427;-90
2021/11/24 07:06:20;;;;;;;10.60;8.40;;;;;;;;;;5037008;28;20438;-92
2021/11/24 07:08:47;;;;;;;10.87;7.13;;;;;;;;;;5036883;28;20446;-91
2021/11/24 07:11:16;;;;;;;8.47;6.87;;;;;;;;;;5039961;28;20484;-89
2021/11/24 07:13:43;;;;;;;8.50;6.00;;;;;;;;;;5040441;28;20505;-91
2021/11/24 07:16:10;;;;;;;13.00;7.27;;;;;;;;;;5045808;28;20449;-90
2021/11/24 07:18:37;;;;;;;12.73;7.17;;;;;;;;;;5051639;28;20483;-91
2021/11/24 07:21:05;;;;;;;10.10;7.20;;;;;;;;;;5042502;28;20477;-91
2021/11/24 07:23:32;;;;;;;11.60;7.57;;;;;;;;;;5041762;28;20461;-92
2021/11/24 07:25:59;;;;;;;12.50;8.53;;;;;;;;;;5050553;28;20455;-94
2021/11/24 07:28:28;;;;;;;11.90;7.67;;;;;;;;;;5049687;28;20456;-91
2021/11/24 07:30:56;;;;;;;15.43;8.53;;;;;;;;;;5048213;28;20446;-91
2021/11/24 07:33:23;;;;;;;13.37;8.23;;;;;;;;;;5048503;28;20500;-91
2021/11/24 07:35:50;;;;;;;11.70;8.30;;;;;;;;;;5052743;28;20453;-89
2021/11/24 07:38:17;;;;;;;9.30;6.57;;;;;;;;;;5053974;28;20430;-89
2021/11/24 07:40:44;;;;;;;15.17;9.00;;;;;;;;;;5049524;28;20444;-94
2021/11/24 07:43:11;;;;;;;12.23;8.17;;;;;;;;;;5049706;28;20460;-91
2021/11/24 07:45:40;;;;;;;13.77;7.00;;;-2.60;99.90;;;;;;5050258;28;20453;-92
2021/11/24 07:48:08;;;;;;;10.30;8.00;;;-1.60;99.90;;;;;;5049999;28;20441;-93
2021/11/24 07:50:35;;;;;;;11.97;8.60;;;;;;;;;;5050376;28;20494;-91
2021/11/24 07:53:02;;;;;;;15.63;9.20;;;;;;;;;;5050273;28;20675;-92
2021/11/24 07:55:34;;;;;;;11.30;8.67;;;-2.00;99.90;;;;;;5057095;23;20490;-92
2021/11/24 07:58:08;;;;;;;12.20;9.23;;;;;;;;;;5063952;23;20490;-93
2021/11/24 08:00:35;;;;;;;11.40;9.03;;;;;;;;;;5030581;28;20474;-93
2021/11/24 08:03:04;;;;;;;14.90;9.87;;;;;;;;;;5026648;28;20804;-93
2021/11/24 08:05:32;;;;;;;12.20;8.67;;;;;;;;;;5029834;28;20446;-92
2021/11/24 08:08:00;;;;;;;10.90;7.97;;;;;;;;;;5030519;28;20441;-93
2021/11/24 08:10:29;;;;;;;13.50;9.40;;;;;;;;;;5029692;28;20479;-92
2021/11/24 08:12:56;;;;;;;14.53;9.80;;;;;;;;;;5033147;28;20469;-91
2021/11/24 08:15:25;;;;;;;12.43;9.63;;;;;;;;;;5037073;23;20493;-91
2021/11/24 08:17:52;;;;;;;15.07;10.67;;;;;;;;;;5024629;28;20444;-92
2021/11/24 08:20:21;;;;;;;20.20;10.37;;;;;;;;;;5029824;28;20432;-92
2021/11/24 08:22:48;;;;;;;14.63;9.60;;;;;;;;;;5031203;28;20425;-92
2021/11/24 08:25:16;;;;;;;17.17;9.70;;;;;;;;;;5026654;28;20458;-91
2021/11/24 08:27:43;;;;;;;16.10;10.47;;;;;;;;;;5026778;28;20425;-92
2021/11/24 08:30:11;;;;;;;13.60;9.43;;;;;;;;;;5019145;28;20457;-90
2021/11/24 08:32:38;;;;;;;16.80;10.77;;;;;;;;;;5017619;28;20455;-91
2021/11/24 08:35:06;;;;;;;17.73;10.30;;;;;;;;;;5018424;28;20482;-94
2021/11/24 08:37:35;;;;;;;17.67;12.00;;;;;;;;;;5018805;28;20454;-92
2021/11/24 08:40:03;;;;;;;15.80;11.07;;;;;;;;;;5019450;28;20466;-91
2021/11/24 08:42:30;;;;;;;20.33;12.30;;;;;;;;;;5019252;28;20470;-90
2021/11/24 08:44:57;;;;;;;15.77;11.80;;;;;;;;;;5019214;28;20451;-93
2021/11/24 08:47:24;;;;;;;21.83;12.83;;;;;;;;;;5018645;28;20455;-90
2021/11/24 08:49:51;;;;;;;16.47;11.67;;;;;;;;;;5016900;28;20458;-91
2021/11/24 08:52:18;;;;;;;17.57;12.17;;;;;;;;;;5017389;28;20459;-92
2021/11/24 08:54:47;;;;;;;18.40;11.20;;;;;;;;;;5016404;28;20499;-89
2021/11/24 08:57:15;;;;;;;17.40;11.57;;;4.60;99.90;;;;;;5013342;28;20952;-89
2021/11/24 08:59:42;;;;;;;18.80;12.10;;;;;;;;;;5017287;28;20462;-92
2021/11/24 09:02:10;;;;;;;16.93;11.20;;;;;;;;;;5016671;28;20818;-93
2021/11/24 09:04:37;;;;;;;17.07;11.47;;;3.80;99.90;;;;;;5026484;28;20452;-91
2021/11/24 09:07:05;;;;;;;14.20;11.37;;;;;;;;;;5011389;28;20495;-89
2021/11/24 09:09:33;;;;;;;16.33;11.63;;;;;;;;;;4989445;28;20479;-88
2021/11/24 09:12:02;;;;;;;15.70;11.50;;;4.30;99.90;;;;;;4987482;28;20450;-91
2021/11/24 09:14:29;;;;;;;13.87;10.97;;;;;;;;;;4998110;28;20573;-93
2021/11/24 09:16:56;;;;;;;14.37;11.43;;;;;;;;;;4994566;28;20488;-95
2021/11/24 09:19:23;;;;;;;14.43;10.93;;;;;;;;;;4997914;28;20950;-95
2021/11/24 09:21:51;;;;;;;15.53;11.13;;;;;;;;;;4995001;28;20446;-92
2021/11/24 09:24:22;;;;;;;15.30;11.40;;;;;;;;;;4997108;28;20458;-89
2021/11/24 09:26:56;;;;;;;15.60;11.00;;;;;;;;;;4990323;28;20828;-88
2021/11/24 09:29:27;;;;;;;14.07;11.10;;;4.30;99.90;;;;;;4976054;28;20453;-88
2021/11/24 09:31:54;;;;;;;14.47;11.10;;;;;;;;;;4991366;28;20989;-89
2021/11/24 09:34:21;;;;;;;12.43;10.07;;;;;;;;;;4995392;28;20524;-89
2021/11/24 09:36:48;;;;;;;13.70;10.40;;;;;;;;;;4992863;28;20439;-89
2021/11/24 09:39:16;;;;;;;17.40;12.20;;;;;;;;;;4994797;28;20460;-87
2021/11/24 09:41:45;;;;;;;12.90;10.07;;;5.00;99.90;;;;;;4995149;28;20458;-89
2021/11/24 09:44:13;;;;;;;17.97;11.17;;;;;;;;;;4995233;28;20469;-89
2021/11/24 09:46:45;;;;;;;16.00;11.90;;;5.50;99.90;;;;;;4993063;28;20462;-88
2021/11/24 09:49:12;;;;;;;14.77;12.20;;;;;;;;;;4990416;28;20481;-88
2021/11/24 09:51:40;;;;;;;14.07;10.90;;;5.80;99.90;;;;;;4995317;28;20457;-88
2021/11/24 09:54:07;;;;;;;13.30;11.60;;;;;;;;;;4989218;28;21003;-88
2021/11/24 09:56:36;;;;;;;17.13;12.87;;;;;;;;;;4989033;28;20469;-87
2021/11/24 09:59:03;;;;;;;15.13;11.00;;;;;;;;;;4992747;28;20480;-88
2021/11/24 10:01:31;;;;;;;16.77;11.70;;;;;;;;;;4993394;28;20454;-88
2021/11/24 10:03:59;;;;;;;14.27;11.90;;;7.20;99.90;;;;;;4994589;28;20957;-88
2021/11/24 10:06:26;;;;;;;13.93;11.77;;;;;;;;;;4989504;28;20522;-87
2021/11/24 10:08:54;;;;;;;13.40;10.07;;;;;;;;;;4994362;28;20457;-88
2021/11/24 10:11:22;;;;;;;14.00;12.00;;;5.80;99.90;;;;;;4994448;28;20481;-88
2021/11/24 10:13:50;;;;;;;17.23;12.70;;;;;;;;;;4995055;28;21091;-88
2021/11/24 10:16:25;;;;;;;17.90;12.70;;;6.00;99.90;;;;;;4992101;28;21028;-88
2021/11/24 10:19:02;;;;;;;17.30;12.47;;;5.50;99.90;;;;;;4996263;28;20457;-87
2021/11/24 10:21:32;;;;;;;17.17;11.87;;;5.10;99.90;;;;;;4994862;28;20445;-89
2021/11/24 10:24:01;;;;;;;20.30;12.37;;;4.70;99.90;;;;;;4995571;28;20450;-90
2021/11/24 10:26:32;;;;;;;15.73;12.07;;;4.60;99.90;;;;;;4994600;28;20458;-89
2021/11/24 10:29:01;;;;;;;22.10;12.87;;;4.30;99.90;;;;;;4991781;28;20458;-88
2021/11/24 10:31:36;;;;;;;18.53;12.57;;;4.70;99.90;;;;;;4984144;28;20449;-89
2021/11/24 10:34:13;;;;;;;16.00;12.17;;;4.80;99.90;;;;;;4990387;28;20495;-86
2021/11/24 10:36:54;;;;;;;29.63;13.10;;;4.90;99.90;;;;;;4974815;28;20512;-88
2021/11/24 10:39:22;;;;;;;28.27;12.93;;;5.30;99.90;;;;;;4974248;28;20455;-91
2021/11/24 10:41:50;;;;;;;18.30;12.60;;;;;;;;;;4973498;28;20462;-89
2021/11/24 10:44:26;;;;;;;16.97;12.13;;;5.90;99.90;;;;;;4974109;28;20458;-88
2021/11/24 10:46:55;;;;;;;14.37;11.17;;;6.70;99.90;;;;;;4973718;28;20941;-87
2021/11/24 10:49:31;;;;;;;13.70;11.20;;;6.20;99.90;;;;;;4974848;28;20478;-88
2021/11/24 10:51:59;;;;;;;18.57;12.27;;;;;;;;;;4975592;28;20472;-88
2021/11/24 10:54:26;;;;;;;18.80;12.37;;;;;;;;;;4994085;28;20492;-86
2021/11/24 10:57:07;;;;;;;20.13;12.40;;;5.20;99.90;;;;;;4993962;28;20463;-88
2021/11/24 10:59:36;;;;;;;21.60;12.97;;;5.30;99.90;;;;;;4994175;28;20461;-89
2021/11/24 11:02:26;;;;;;;19.47;12.97;;;5.00;99.90;;;;;;4993301;28;20456;-88
2021/11/24 11:05:00;;;;;;;20.43;12.80;;;4.40;99.90;;;;;;4994211;28;20459;-87
2021/11/24 11:07:27;;;;;;;15.43;11.03;;;;;;;;;;4993990;28;20457;-85
2021/11/24 11:10:19;;;;;;;16.53;10.70;;;3.70;99.90;;;;;;4993911;28;20446;-87
2021/11/24 11:12:47;;;;;;;16.07;10.90;;;3.80;99.90;;;;;;4974915;28;20471;-87
2021/11/24 11:15:27;;;;;;;22.03;13.30;;;3.90;99.90;;;;;;4994470;28;20496;-88
2021/11/24 11:18:13;;;;;;;19.50;11.23;;;4.10;99.90;;;;;;4958820;28;20457;-90
2021/11/24 11:20:46;;;;;;;19.77;13.23;;;4.00;99.90;;;;;;4968904;28;20980;-88
2021/11/24 11:23:19;;;;;;;20.30;13.70;;;4.30;99.90;;;;;;4974526;28;20456;-88
2021/11/24 11:25:48;;;;;;;20.17;12.40;;;4.20;99.90;;;;;;4972008;28;20456;-89
2021/11/24 11:28:16;;;;;;;22.10;12.77;;;;;;;;;;4974759;28;20458;-90
2021/11/24 11:30:45;;;;;;;24.30;13.83;;;4.40;99.90;;;;;;4974623;28;20958;-87
2021/11/24 11:33:14;;;;;;;17.27;10.97;;;5.20;99.90;;;;;;4973720;28;20456;-88
2021/11/24 11:35:43;;;;;;;23.60;12.97;;;5.70;99.90;;;;;;4961122;28;20501;-88
2021/11/24 11:38:10;;;;;;;23.47;14.67;;;;;;;;;;4957934;28;20822;-85
2021/11/24 11:40:38;;;;;;;22.17;11.77;;;;;;;;;;4960384;28;20462;-84
2021/11/24 11:43:07;;;;;;;21.13;12.60;;;5.30;99.90;;;;;;4955557;28;20943;-86
2021/11/24 11:45:35;;;;;;;18.13;12.17;;;5.80;99.90;;;;;;4954858;28;20463;-90
2021/11/24 11:48:05;;;;;;;21.00;13.23;;;5.90;99.90;;;;;;4955881;28;20482;-92
2021/11/24 11:50:55;;;;;;;19.17;12.47;;;5.70;99.90;;;;;;4953632;29;20482;-94
2021/11/24 11:53:26;;;;;;;17.77;11.80;;;5.60;99.90;;;;;;4957229;29;20447;-90
2021/11/24 11:56:16;;;;;;;21.90;12.53;;;5.70;99.90;;;;;;4959634;28;20560;-90
2021/11/24 11:58:50;;;;;;;16.37;11.37;;;6.80;99.90;;;;;;4956924;29;20449;-91
2021/11/24 12:01:19;;;;;;;18.13;11.93;;;6.70;99.90;;;;;;4968878;28;20812;-91
2021/11/24 12:04:14;;;;;;;23.03;12.93;;;6.90;99.90;;;;;;5002254;28;20460;-91
2021/11/24 12:06:46;;;;;;;16.53;10.93;;;7.60;99.90;;;;;;5004008;28;20490;-92
2021/11/24 12:09:24;;;;;;;19.03;11.50;;;;;;;;;;4996605;28;20460;-95
2021/11/24 12:12:26;;;;;;;20.07;12.00;;;6.80;99.90;;;;;;5003266;28;20479;-93
2021/11/24 12:15:15;;;;;;;14.13;9.60;;;6.90;99.90;;;;;;4896205;29;20536;-94
2021/11/24 12:17:48;;;;;;;17.77;12.27;;;6.90;99.90;;;;;;4899319;29;20467;-92
2021/11/24 12:20:39;;;;;;;16.50;11.60;;;7.00;99.90;;;;;;4900909;29;20540;-93
2021/11/24 12:23:22;;;;;;;15.87;10.37;;;6.80;99.90;;;;;;4957135;28;20465;-95
2021/11/24 12:25:49;;;;;;;13.67;9.80;;;;;;;;;;5002767;28;20463;-94
2021/11/24 12:28:20;;;;;;;15.33;10.17;;;;;;;;;;5006485;28;20445;-95
2021/11/24 12:30:52;;;;;;;16.33;10.50;;;;;;;;;;5005308;28;20452;-93
2021/11/24 12:33:23;;;;;;;13.53;8.90;;;7.10;99.90;;;;;;4954875;28;20979;-92
2021/11/24 12:35:51;;;;;;;17.80;10.67;;;;;;;;;;5004250;28;20560;-93
2021/11/24 12:38:21;;;;;;;12.97;8.97;;;;;;;;;;5002677;28;20457;-94
2021/11/24 12:40:49;;;;;;;18.53;9.60;;;;;;;;;;5003829;28;20471;-93
2021/11/24 12:43:18;;;;;;;24.73;9.53;;;7.50;99.90;;;;;;5002808;28;20467;-92
2021/11/24 12:46:05;;;;;;;13.83;9.27;;;;;;;;;;5001823;28;20459;-92
2021/11/24 12:48:34;;;;;;;12.17;9.03;;;6.60;99.90;;;;;;5001589;28;20458;-93
2021/11/24 12:51:03;;;;;;;14.60;9.80;;;6.40;99.90;;;;;;5003779;28;20485;-92
2021/11/24 12:53:36;;;;;;;17.30;9.97;;;6.80;99.90;;;;;;5004049;28;20467;-93
2021/11/24 12:56:09;;;;;;;19.10;10.13;;;5.40;99.90;;;;;;5006102;28;20519;-93
2021/11/24 12:58:37;;;;;;;10.10;8.00;;;;;;;;;;5007872;28;20464;-94
2021/11/24 13:01:24;;;;;;;16.33;9.50;;;6.90;99.90;;;;;;5000453;28;20527;-94
2021/11/24 13:04:06;;;;;;;15.53;10.13;;;6.80;99.90;;;;;;5000248;28;20436;-92
2021/11/24 13:06:35;;;;;;;17.33;8.83;;;7.00;99.90;;;;;;4997207;28;20877;-91
2021/11/24 13:09:14;;;;;;;14.80;9.67;;;7.20;99.90;;;;;;4996689;28;20944;-92
2021/11/24 13:11:49;;;;;;;13.30;8.97;;;;;;;;;;4997912;28;20487;-94
2021/11/24 13:14:17;;;;;;;12.90;9.17;;;7.30;99.90;;;;;;4996607;28;20475;-90
2021/11/24 13:16:44;;;;;;;13.83;9.50;;;;;;;;;;4977679;28;20482;-92
2021/11/24 13:19:11;;;;;;;18.10;10.07;;;;;;;;;;4979182;28;20450;-91
2021/11/24 13:21:49;;;;;;;15.70;10.07;;;7.50;99.90;;;;;;4982162;28;20459;-92
2021/11/24 13:24:21;;;;;;;13.20;9.53;;;;;;;;;;4978877;28;20517;-92
2021/11/24 13:26:55;;;;;;;14.13;9.50;;;7.30;99.90;;;;;;4979777;28;20472;-90
2021/11/24 13:29:24;;;;;;;13.50;9.53;;;;;;;;;;4980067;28;20433;-93
2021/11/24 13:31:52;;;;;;;12.97;9.00;;;;;;;;;;4979853;28;20448;-93
2021/11/24 13:34:26;;;;;;;12.90;8.93;;;;;;;;;;4981420;28;20469;-94
2021/11/24 13:36:53;;;;;;;18.70;9.87;;;;;;;;;;4977005;28;20443;-91
2021/11/24 13:39:31;;;;;;;14.47;9.80;;;7.00;99.90;;;;;;4980898;28;20539;-91
2021/11/24 13:42:16;;;;;;;15.53;9.57;;;6.90;99.90;;;;;;4975737;28;20477;-90
2021/11/24 13:44:52;;;;;;;13.67;9.50;;;6.20;99.90;;;;;;4980463;28;20478;-90
2021/11/24 13:47:28;;;;;;;13.80;9.97;;;6.60;99.90;;;;;;4980166;28;20472;-91
2021/11/24 13:49:57;;;;;;;19.67;10.93;;;;;;;;;;4975692;28;20458;-91
2021/11/24 13:52:26;;;;;;;18.83;10.93;;;6.70;99.90;;;;;;4980640;28;20462;-90
2021/11/24 13:54:58;;;;;;;17.20;11.13;;;6.80;99.90;;;;;;4980174;28;20528;-91
2021/11/24 13:57:26;;;;;;;21.93;10.57;;;6.40;99.90;;;;;;4980876;28;20457;-91
2021/11/24 14:00:00;;;;;;;15.60;9.23;;;6.10;99.90;;;;;;4979036;28;20453;-90